sensor_id;sensor_type;location;lat;lon;timestamp;P1;durP1;ratioP1;P2;durP2;ratioP2
74269;SDS011;62754;48.252;11.654;2022-12-16T00:01:18;21.73;;;10.40;;
74269;SDS011;62754;48.252;11.654;2022-12-16T00:03:48;23.08;;;10.45;;
74269;SDS011;62754;48.252;11.654;2022-12-16T00:06:16;21.95;;;9.93;;
74269;SDS011;62754;48.252;11.654;2022-12-16T00:08:42;23.42;;;10.75;;
74269;SDS011;62754;48.252;11.654;2022-12-16T00:11:08;22.45;;;11.38;;
74269;SDS011;62754;48.252;11.654;2022-12-16T00:13:34;24.63;;;10.88;;
74269;SDS011;62754;48.252;11.654;2022-12-16T00:16:08;22.98;;;11.32;;
74269;SDS011;62754;48.252;11.654;2022-12-16T00:18:36;24.77;;;10.70;;
74269;SDS011;62754;48.252;11.654;2022-12-16T00:21:03;24.00;;;10.82;;
74269;SDS011;62754;48.252;11.654;2022-12-16T00:23:29;22.63;;;10.77;;
74269;SDS011;62754;48.252;11.654;2022-12-16T00:25:55;24.00;;;11.25;;
74269;SDS011;62754;48.252;11.654;2022-12-16T00:28:21;25.40;;;12.27;;
74269;SDS011;62754;48.252;11.654;2022-12-16T00:30:48;21.70;;;10.48;;
74269;SDS011;62754;48.252;11.654;2022-12-16T00:33:16;22.60;;;10.73;;
74269;SDS011;62754;48.252;11.654;2022-12-16T00:35:43;25.80;;;12.32;;
74269;SDS011;62754;48.252;11.654;2022-12-16T00:38:09;24.10;;;11.95;;
74269;SDS011;62754;48.252;11.654;2022-12-16T00:40:35;24.65;;;12.18;;
74269;SDS011;62754;48.252;11.654;2022-12-16T00:43:01;24.33;;;12.10;;
74269;SDS011;62754;48.252;11.654;2022-12-16T00:45:26;24.13;;;11.63;;
74269;SDS011;62754;48.252;11.654;2022-12-16T00:47:53;23.02;;;12.18;;
74269;SDS011;62754;48.252;11.654;2022-12-16T00:50:18;29.13;;;12.90;;
74269;SDS011;62754;48.252;11.654;2022-12-16T00:52:45;24.70;;;12.43;;
74269;SDS011;62754;48.252;11.654;2022-12-16T00:57:37;29.00;;;13.32;;
74269;SDS011;62754;48.252;11.654;2022-12-16T01:00:03;30.30;;;14.43;;
74269;SDS011;62754;48.252;11.654;2022-12-16T01:02:30;27.17;;;13.10;;
74269;SDS011;62754;48.252;11.654;2022-12-16T01:04:56;27.00;;;13.63;;
74269;SDS011;62754;48.252;11.654;2022-12-16T01:07:22;29.08;;;15.10;;
74269;SDS011;62754;48.252;11.654;2022-12-16T01:09:48;27.17;;;13.43;;
74269;SDS011;62754;48.252;11.654;2022-12-16T01:12:14;30.13;;;14.88;;
74269;SDS011;62754;48.252;11.654;2022-12-16T01:14:40;28.02;;;13.63;;
74269;SDS011;62754;48.252;11.654;2022-12-16T01:17:05;29.55;;;15.05;;
74269;SDS011;62754;48.252;11.654;2022-12-16T01:19:31;26.35;;;13.52;;
74269;SDS011;62754;48.252;11.654;2022-12-16T01:21:57;27.48;;;14.57;;
74269;SDS011;62754;48.252;11.654;2022-12-16T01:24:22;29.17;;;15.00;;
74269;SDS011;62754;48.252;11.654;2022-12-16T01:26:48;28.98;;;14.57;;
74269;SDS011;62754;48.252;11.654;2022-12-16T01:29:14;30.58;;;14.98;;
74269;SDS011;62754;48.252;11.654;2022-12-16T01:31:40;29.00;;;15.27;;
74269;SDS011;62754;48.252;11.654;2022-12-16T01:34:05;31.52;;;15.27;;
74269;SDS011;62754;48.252;11.654;2022-12-16T01:36:31;30.08;;;15.30;;
74269;SDS011;62754;48.252;11.654;2022-12-16T01:38:57;30.70;;;14.98;;
74269;SDS011;62754;48.252;11.654;2022-12-16T01:41:23;32.05;;;16.08;;
74269;SDS011;62754;48.252;11.654;2022-12-16T01:43:48;27.85;;;14.95;;
74269;SDS011;62754;48.252;11.654;2022-12-16T01:46:16;31.75;;;15.57;;
74269;SDS011;62754;48.252;11.654;2022-12-16T01:48:53;33.45;;;15.43;;
74269;SDS011;62754;48.252;11.654;2022-12-16T01:51:22;31.60;;;16.25;;
74269;SDS011;62754;48.252;11.654;2022-12-16T01:54:07;27.58;;;14.23;;
74269;SDS011;62754;48.252;11.654;2022-12-16T01:56:34;32.20;;;16.52;;
74269;SDS011;62754;48.252;11.654;2022-12-16T01:59:05;28.85;;;15.40;;
74269;SDS011;62754;48.252;11.654;2022-12-16T02:01:32;29.02;;;14.68;;
74269;SDS011;62754;48.252;11.654;2022-12-16T02:03:59;32.38;;;15.75;;
74269;SDS011;62754;48.252;11.654;2022-12-16T02:06:28;33.67;;;15.93;;
74269;SDS011;62754;48.252;11.654;2022-12-16T02:08:55;31.70;;;16.50;;
74269;SDS011;62754;48.252;11.654;2022-12-16T02:28:28;26.00;;;14.07;;
74269;SDS011;62754;48.252;11.654;2022-12-16T02:36:30;27.55;;;14.73;;
74269;SDS011;62754;48.252;11.654;2022-12-16T02:39:03;30.77;;;15.45;;
74269;SDS011;62754;48.252;11.654;2022-12-16T02:44:06;28.67;;;14.90;;
74269;SDS011;62754;48.252;11.654;2022-12-16T02:46:38;27.20;;;14.25;;
74269;SDS011;62754;48.252;11.654;2022-12-16T02:51:54;28.90;;;14.50;;
74269;SDS011;62754;48.252;11.654;2022-12-16T02:54:22;26.27;;;14.55;;
74269;SDS011;62754;48.252;11.654;2022-12-16T02:56:49;29.15;;;15.05;;
74269;SDS011;62754;48.252;11.654;2022-12-16T02:59:34;27.95;;;14.18;;
74269;SDS011;62754;48.252;11.654;2022-12-16T03:05:31;27.83;;;13.88;;
74269;SDS011;62754;48.252;11.654;2022-12-16T03:08:01;27.85;;;14.50;;
74269;SDS011;62754;48.252;11.654;2022-12-16T03:10:34;27.17;;;14.27;;
74269;SDS011;62754;48.252;11.654;2022-12-16T03:13:05;29.25;;;14.80;;
74269;SDS011;62754;48.252;11.654;2022-12-16T03:15:33;30.52;;;14.77;;
74269;SDS011;62754;48.252;11.654;2022-12-16T03:18:01;28.23;;;14.88;;
74269;SDS011;62754;48.252;11.654;2022-12-16T03:20:39;30.55;;;15.18;;
74269;SDS011;62754;48.252;11.654;2022-12-16T03:25:40;29.15;;;15.00;;
74269;SDS011;62754;48.252;11.654;2022-12-16T03:28:21;30.88;;;15.20;;
74269;SDS011;62754;48.252;11.654;2022-12-16T03:31:03;28.77;;;14.80;;
74269;SDS011;62754;48.252;11.654;2022-12-16T03:33:37;33.88;;;15.32;;
74269;SDS011;62754;48.252;11.654;2022-12-16T03:36:11;30.00;;;15.20;;
74269;SDS011;62754;48.252;11.654;2022-12-16T03:38:42;29.80;;;14.48;;
74269;SDS011;62754;48.252;11.654;2022-12-16T03:41:09;31.52;;;15.80;;
74269;SDS011;62754;48.252;11.654;2022-12-16T03:43:37;30.08;;;15.35;;
74269;SDS011;62754;48.252;11.654;2022-12-16T03:46:03;30.42;;;14.93;;
74269;SDS011;62754;48.252;11.654;2022-12-16T03:48:31;30.92;;;16.02;;
74269;SDS011;62754;48.252;11.654;2022-12-16T03:50:58;32.55;;;15.18;;
74269;SDS011;62754;48.252;11.654;2022-12-16T03:53:24;32.92;;;15.70;;
74269;SDS011;62754;48.252;11.654;2022-12-16T03:55:50;31.63;;;16.20;;
74269;SDS011;62754;48.252;11.654;2022-12-16T03:58:16;31.70;;;15.60;;
74269;SDS011;62754;48.252;11.654;2022-12-16T04:00:42;32.95;;;15.63;;
74269;SDS011;62754;48.252;11.654;2022-12-16T04:03:08;33.63;;;16.27;;
74269;SDS011;62754;48.252;11.654;2022-12-16T04:05:34;35.03;;;16.20;;
74269;SDS011;62754;48.252;11.654;2022-12-16T04:07:59;33.55;;;15.60;;
74269;SDS011;62754;48.252;11.654;2022-12-16T04:10:25;33.28;;;16.08;;
74269;SDS011;62754;48.252;11.654;2022-12-16T04:12:51;33.30;;;15.73;;
74269;SDS011;62754;48.252;11.654;2022-12-16T04:15:17;28.77;;;15.25;;
74269;SDS011;62754;48.252;11.654;2022-12-16T04:17:43;33.40;;;15.55;;
74269;SDS011;62754;48.252;11.654;2022-12-16T04:20:12;27.73;;;13.93;;
74269;SDS011;62754;48.252;11.654;2022-12-16T04:22:41;36.70;;;16.67;;
74269;SDS011;62754;48.252;11.654;2022-12-16T04:25:15;33.63;;;16.90;;
74269;SDS011;62754;48.252;11.654;2022-12-16T04:27:44;30.55;;;15.45;;
74269;SDS011;62754;48.252;11.654;2022-12-16T04:30:09;35.80;;;16.33;;
74269;SDS011;62754;48.252;11.654;2022-12-16T04:32:36;33.50;;;16.08;;
74269;SDS011;62754;48.252;11.654;2022-12-16T04:35:02;31.92;;;15.80;;
74269;SDS011;62754;48.252;11.654;2022-12-16T04:37:28;33.05;;;15.88;;
74269;SDS011;62754;48.252;11.654;2022-12-16T04:39:54;31.58;;;16.65;;
74269;SDS011;62754;48.252;11.654;2022-12-16T04:42:20;31.55;;;15.40;;
74269;SDS011;62754;48.252;11.654;2022-12-16T04:44:45;36.08;;;17.25;;
74269;SDS011;62754;48.252;11.654;2022-12-16T04:47:11;34.88;;;16.10;;
74269;SDS011;62754;48.252;11.654;2022-12-16T04:49:37;36.25;;;16.52;;
74269;SDS011;62754;48.252;11.654;2022-12-16T04:52:03;36.15;;;16.67;;
74269;SDS011;62754;48.252;11.654;2022-12-16T04:54:29;35.72;;;16.63;;
74269;SDS011;62754;48.252;11.654;2022-12-16T04:56:55;32.67;;;17.42;;
74269;SDS011;62754;48.252;11.654;2022-12-16T04:59:21;36.30;;;17.92;;
74269;SDS011;62754;48.252;11.654;2022-12-16T05:01:46;36.38;;;17.10;;
74269;SDS011;62754;48.252;11.654;2022-12-16T05:04:12;40.45;;;18.98;;
74269;SDS011;62754;48.252;11.654;2022-12-16T05:06:38;36.28;;;18.23;;
74269;SDS011;62754;48.252;11.654;2022-12-16T05:09:04;37.17;;;18.50;;
74269;SDS011;62754;48.252;11.654;2022-12-16T05:11:30;34.80;;;17.27;;
74269;SDS011;62754;48.252;11.654;2022-12-16T05:13:56;38.90;;;18.33;;
74269;SDS011;62754;48.252;11.654;2022-12-16T05:16:22;42.15;;;18.30;;
74269;SDS011;62754;48.252;11.654;2022-12-16T05:18:48;38.60;;;18.70;;
74269;SDS011;62754;48.252;11.654;2022-12-16T05:21:13;41.80;;;19.98;;
74269;SDS011;62754;48.252;11.654;2022-12-16T05:23:39;46.90;;;20.23;;
74269;SDS011;62754;48.252;11.654;2022-12-16T05:26:05;41.03;;;19.75;;
74269;SDS011;62754;48.252;11.654;2022-12-16T05:28:30;45.60;;;20.13;;
74269;SDS011;62754;48.252;11.654;2022-12-16T05:30:56;46.72;;;21.08;;
74269;SDS011;62754;48.252;11.654;2022-12-16T05:33:22;42.70;;;19.77;;
74269;SDS011;62754;48.252;11.654;2022-12-16T05:35:48;44.50;;;20.35;;
74269;SDS011;62754;48.252;11.654;2022-12-16T05:38:14;44.60;;;20.52;;
74269;SDS011;62754;48.252;11.654;2022-12-16T05:40:39;44.20;;;19.88;;
74269;SDS011;62754;48.252;11.654;2022-12-16T05:43:05;45.42;;;20.25;;
74269;SDS011;62754;48.252;11.654;2022-12-16T05:45:31;43.38;;;19.75;;
74269;SDS011;62754;48.252;11.654;2022-12-16T05:47:57;40.72;;;19.83;;
74269;SDS011;62754;48.252;11.654;2022-12-16T05:50:22;45.13;;;21.02;;
74269;SDS011;62754;48.252;11.654;2022-12-16T05:52:48;43.70;;;19.70;;
74269;SDS011;62754;48.252;11.654;2022-12-16T05:55:15;44.15;;;20.17;;
74269;SDS011;62754;48.252;11.654;2022-12-16T05:57:41;44.35;;;19.85;;
74269;SDS011;62754;48.252;11.654;2022-12-16T06:00:07;42.05;;;19.40;;
74269;SDS011;62754;48.252;11.654;2022-12-16T06:02:33;42.72;;;19.20;;
74269;SDS011;62754;48.252;11.654;2022-12-16T06:04:59;45.78;;;20.75;;
74269;SDS011;62754;48.252;11.654;2022-12-16T06:07:24;44.10;;;21.23;;
74269;SDS011;62754;48.252;11.654;2022-12-16T06:09:50;42.70;;;19.77;;
74269;SDS011;62754;48.252;11.654;2022-12-16T06:12:16;42.63;;;19.20;;
74269;SDS011;62754;48.252;11.654;2022-12-16T06:14:42;46.47;;;22.15;;
74269;SDS011;62754;48.252;11.654;2022-12-16T06:17:07;42.33;;;20.88;;
74269;SDS011;62754;48.252;11.654;2022-12-16T06:19:33;44.72;;;20.27;;
74269;SDS011;62754;48.252;11.654;2022-12-16T06:21:59;46.35;;;20.25;;
74269;SDS011;62754;48.252;11.654;2022-12-16T06:24:24;43.70;;;20.45;;
74269;SDS011;62754;48.252;11.654;2022-12-16T06:26:50;42.35;;;20.25;;
74269;SDS011;62754;48.252;11.654;2022-12-16T06:29:16;46.42;;;19.75;;
74269;SDS011;62754;48.252;11.654;2022-12-16T06:31:42;46.20;;;20.38;;
74269;SDS011;62754;48.252;11.654;2022-12-16T06:34:07;44.85;;;22.02;;
74269;SDS011;62754;48.252;11.654;2022-12-16T06:36:33;44.22;;;19.77;;
74269;SDS011;62754;48.252;11.654;2022-12-16T06:38:59;44.15;;;20.20;;
74269;SDS011;62754;48.252;11.654;2022-12-16T06:41:25;45.85;;;19.98;;
74269;SDS011;62754;48.252;11.654;2022-12-16T06:43:50;48.35;;;21.60;;
74269;SDS011;62754;48.252;11.654;2022-12-16T06:46:16;47.13;;;21.55;;
74269;SDS011;62754;48.252;11.654;2022-12-16T06:48:42;45.05;;;20.90;;
74269;SDS011;62754;48.252;11.654;2022-12-16T06:51:08;44.47;;;20.85;;
74269;SDS011;62754;48.252;11.654;2022-12-16T06:53:33;42.45;;;19.95;;
74269;SDS011;62754;48.252;11.654;2022-12-16T06:55:59;47.47;;;20.70;;
74269;SDS011;62754;48.252;11.654;2022-12-16T06:58:25;46.17;;;21.38;;
74269;SDS011;62754;48.252;11.654;2022-12-16T07:00:51;45.53;;;21.13;;
74269;SDS011;62754;48.252;11.654;2022-12-16T07:03:16;44.85;;;20.10;;
74269;SDS011;62754;48.252;11.654;2022-12-16T07:05:42;46.00;;;20.42;;
74269;SDS011;62754;48.252;11.654;2022-12-16T07:08:08;44.20;;;20.35;;
74269;SDS011;62754;48.252;11.654;2022-12-16T07:10:34;46.13;;;21.50;;
74269;SDS011;62754;48.252;11.654;2022-12-16T07:12:59;46.70;;;21.90;;
74269;SDS011;62754;48.252;11.654;2022-12-16T07:15:25;41.38;;;19.30;;
74269;SDS011;62754;48.252;11.654;2022-12-16T07:17:51;40.60;;;19.80;;
74269;SDS011;62754;48.252;11.654;2022-12-16T07:20:17;46.30;;;20.27;;
74269;SDS011;62754;48.252;11.654;2022-12-16T07:22:43;46.58;;;21.38;;
74269;SDS011;62754;48.252;11.654;2022-12-16T07:25:09;40.63;;;20.48;;
74269;SDS011;62754;48.252;11.654;2022-12-16T07:27:35;45.25;;;19.60;;
74269;SDS011;62754;48.252;11.654;2022-12-16T07:30:01;42.40;;;19.70;;
74269;SDS011;62754;48.252;11.654;2022-12-16T07:32:26;42.53;;;19.73;;
74269;SDS011;62754;48.252;11.654;2022-12-16T07:34:52;47.83;;;21.23;;
74269;SDS011;62754;48.252;11.654;2022-12-16T07:37:18;44.90;;;20.15;;
74269;SDS011;62754;48.252;11.654;2022-12-16T07:39:44;43.17;;;21.15;;
74269;SDS011;62754;48.252;11.654;2022-12-16T07:42:09;44.13;;;21.40;;
74269;SDS011;62754;48.252;11.654;2022-12-16T07:44:35;41.85;;;20.50;;
74269;SDS011;62754;48.252;11.654;2022-12-16T07:47:01;42.67;;;20.95;;
74269;SDS011;62754;48.252;11.654;2022-12-16T07:49:27;42.53;;;20.40;;
74269;SDS011;62754;48.252;11.654;2022-12-16T07:51:52;42.53;;;21.05;;
74269;SDS011;62754;48.252;11.654;2022-12-16T07:54:18;42.33;;;20.70;;
74269;SDS011;62754;48.252;11.654;2022-12-16T07:56:44;42.58;;;20.27;;
74269;SDS011;62754;48.252;11.654;2022-12-16T07:59:10;47.08;;;21.83;;
74269;SDS011;62754;48.252;11.654;2022-12-16T08:01:35;43.63;;;21.63;;
74269;SDS011;62754;48.252;11.654;2022-12-16T08:04:01;43.22;;;20.58;;
74269;SDS011;62754;48.252;11.654;2022-12-16T08:06:27;46.15;;;21.00;;
74269;SDS011;62754;48.252;11.654;2022-12-16T08:08:53;46.30;;;20.17;;
74269;SDS011;62754;48.252;11.654;2022-12-16T08:11:19;40.65;;;20.23;;
74269;SDS011;62754;48.252;11.654;2022-12-16T08:13:45;41.95;;;19.70;;
74269;SDS011;62754;48.252;11.654;2022-12-16T08:16:11;44.17;;;21.65;;
74269;SDS011;62754;48.252;11.654;2022-12-16T08:18:36;42.05;;;20.50;;
74269;SDS011;62754;48.252;11.654;2022-12-16T08:21:02;43.15;;;19.63;;
74269;SDS011;62754;48.252;11.654;2022-12-16T08:23:28;40.30;;;20.20;;
74269;SDS011;62754;48.252;11.654;2022-12-16T08:25:53;40.00;;;19.38;;
74269;SDS011;62754;48.252;11.654;2022-12-16T08:28:19;43.67;;;21.00;;
74269;SDS011;62754;48.252;11.654;2022-12-16T08:30:48;40.13;;;18.65;;
74269;SDS011;62754;48.252;11.654;2022-12-16T08:33:14;38.97;;;19.25;;
74269;SDS011;62754;48.252;11.654;2022-12-16T08:35:40;42.17;;;20.27;;
74269;SDS011;62754;48.252;11.654;2022-12-16T08:38:06;40.22;;;18.85;;
74269;SDS011;62754;48.252;11.654;2022-12-16T08:40:32;43.17;;;19.33;;
74269;SDS011;62754;48.252;11.654;2022-12-16T08:42:57;39.33;;;19.13;;
74269;SDS011;62754;48.252;11.654;2022-12-16T08:45:23;41.00;;;19.73;;
74269;SDS011;62754;48.252;11.654;2022-12-16T08:47:49;41.83;;;20.17;;
74269;SDS011;62754;48.252;11.654;2022-12-16T08:50:15;43.42;;;21.00;;
74269;SDS011;62754;48.252;11.654;2022-12-16T08:52:41;40.83;;;19.23;;
74269;SDS011;62754;48.252;11.654;2022-12-16T08:55:07;40.17;;;20.33;;
74269;SDS011;62754;48.252;11.654;2022-12-16T08:57:32;39.42;;;19.75;;
74269;SDS011;62754;48.252;11.654;2022-12-16T08:59:58;38.67;;;18.85;;
74269;SDS011;62754;48.252;11.654;2022-12-16T09:02:24;41.17;;;21.50;;
74269;SDS011;62754;48.252;11.654;2022-12-16T09:04:50;37.00;;;19.35;;
74269;SDS011;62754;48.252;11.654;2022-12-16T09:07:15;41.58;;;19.85;;
74269;SDS011;62754;48.252;11.654;2022-12-16T09:09:41;41.53;;;19.20;;
74269;SDS011;62754;48.252;11.654;2022-12-16T09:12:07;38.17;;;18.52;;
74269;SDS011;62754;48.252;11.654;2022-12-16T09:14:33;38.08;;;18.65;;
74269;SDS011;62754;48.252;11.654;2022-12-16T09:16:58;36.70;;;18.17;;
74269;SDS011;62754;48.252;11.654;2022-12-16T09:19:24;36.17;;;18.02;;
74269;SDS011;62754;48.252;11.654;2022-12-16T09:21:50;38.58;;;18.40;;
74269;SDS011;62754;48.252;11.654;2022-12-16T09:24:16;38.97;;;18.92;;
74269;SDS011;62754;48.252;11.654;2022-12-16T09:26:41;41.65;;;19.73;;
74269;SDS011;62754;48.252;11.654;2022-12-16T09:29:07;41.40;;;19.50;;
74269;SDS011;62754;48.252;11.654;2022-12-16T09:31:33;39.33;;;18.50;;
74269;SDS011;62754;48.252;11.654;2022-12-16T09:33:59;37.25;;;17.75;;
74269;SDS011;62754;48.252;11.654;2022-12-16T09:36:24;38.60;;;18.65;;
74269;SDS011;62754;48.252;11.654;2022-12-16T09:38:50;36.83;;;19.40;;
74269;SDS011;62754;48.252;11.654;2022-12-16T09:43:45;39.72;;;18.45;;
74269;SDS011;62754;48.252;11.654;2022-12-16T09:49:23;39.70;;;18.77;;
74269;SDS011;62754;48.252;11.654;2022-12-16T09:51:51;38.45;;;17.77;;
74269;SDS011;62754;48.252;11.654;2022-12-16T09:54:18;42.80;;;20.42;;
74269;SDS011;62754;48.252;11.654;2022-12-16T09:56:47;42.75;;;18.80;;
74269;SDS011;62754;48.252;11.654;2022-12-16T09:59:14;38.47;;;20.02;;
74269;SDS011;62754;48.252;11.654;2022-12-16T10:01:45;43.10;;;20.08;;
74269;SDS011;62754;48.252;11.654;2022-12-16T10:04:11;43.80;;;20.35;;
74269;SDS011;62754;48.252;11.654;2022-12-16T10:11:55;40.08;;;19.20;;
74269;SDS011;62754;48.252;11.654;2022-12-16T10:14:32;40.85;;;17.58;;
74269;SDS011;62754;48.252;11.654;2022-12-16T10:17:11;43.28;;;17.98;;
74269;SDS011;62754;48.252;11.654;2022-12-16T10:22:36;38.95;;;17.55;;
74269;SDS011;62754;48.252;11.654;2022-12-16T10:27:43;38.63;;;16.83;;
74269;SDS011;62754;48.252;11.654;2022-12-16T10:30:12;33.17;;;16.63;;
74269;SDS011;62754;48.252;11.654;2022-12-16T10:32:45;38.63;;;17.92;;
74269;SDS011;62754;48.252;11.654;2022-12-16T10:35:17;35.15;;;17.00;;
74269;SDS011;62754;48.252;11.654;2022-12-16T10:37:48;37.90;;;18.65;;
74269;SDS011;62754;48.252;11.654;2022-12-16T10:40:16;39.22;;;18.85;;
74269;SDS011;62754;48.252;11.654;2022-12-16T10:43:04;36.40;;;17.58;;
74269;SDS011;62754;48.252;11.654;2022-12-16T10:45:44;38.60;;;17.15;;
74269;SDS011;62754;48.252;11.654;2022-12-16T10:48:16;37.00;;;17.13;;
74269;SDS011;62754;48.252;11.654;2022-12-16T10:50:47;33.75;;;17.13;;
74269;SDS011;62754;48.252;11.654;2022-12-16T10:53:14;39.80;;;18.45;;
74269;SDS011;62754;48.252;11.654;2022-12-16T11:01:21;37.50;;;18.38;;
74269;SDS011;62754;48.252;11.654;2022-12-16T11:03:51;40.92;;;19.33;;
74269;SDS011;62754;48.252;11.654;2022-12-16T11:06:35;41.25;;;18.17;;
74269;SDS011;62754;48.252;11.654;2022-12-16T11:09:19;40.60;;;17.38;;
74269;SDS011;62754;48.252;11.654;2022-12-16T11:11:53;42.50;;;19.70;;
74269;SDS011;62754;48.252;11.654;2022-12-16T11:14:52;38.13;;;18.17;;
74269;SDS011;62754;48.252;11.654;2022-12-16T11:19:46;44.35;;;19.63;;
74269;SDS011;62754;48.252;11.654;2022-12-16T11:22:38;37.50;;;18.98;;
74269;SDS011;62754;48.252;11.654;2022-12-16T11:27:30;42.47;;;19.52;;
74269;SDS011;62754;48.252;11.654;2022-12-16T11:30:00;37.78;;;18.50;;
74269;SDS011;62754;48.252;11.654;2022-12-16T11:32:29;42.92;;;20.67;;
74269;SDS011;62754;48.252;11.654;2022-12-16T11:34:55;39.75;;;19.40;;
74269;SDS011;62754;48.252;11.654;2022-12-16T11:37:23;36.55;;;17.83;;
74269;SDS011;62754;48.252;11.654;2022-12-16T11:39:53;38.92;;;17.70;;
74269;SDS011;62754;48.252;11.654;2022-12-16T11:42:19;41.85;;;19.52;;
74269;SDS011;62754;48.252;11.654;2022-12-16T11:44:48;39.75;;;17.88;;
74269;SDS011;62754;48.252;11.654;2022-12-16T11:47:19;37.85;;;18.52;;
74269;SDS011;62754;48.252;11.654;2022-12-16T11:50:00;35.85;;;17.80;;
74269;SDS011;62754;48.252;11.654;2022-12-16T11:52:25;40.20;;;18.77;;
74269;SDS011;62754;48.252;11.654;2022-12-16T11:54:53;36.22;;;18.58;;
74269;SDS011;62754;48.252;11.654;2022-12-16T11:57:41;46.83;;;19.75;;
74269;SDS011;62754;48.252;11.654;2022-12-16T12:00:22;39.78;;;17.60;;
74269;SDS011;62754;48.252;11.654;2022-12-16T12:05:27;40.42;;;18.75;;
74269;SDS011;62754;48.252;11.654;2022-12-16T12:08:07;38.35;;;18.20;;
74269;SDS011;62754;48.252;11.654;2022-12-16T12:10:48;40.17;;;18.88;;
74269;SDS011;62754;48.252;11.654;2022-12-16T12:16:18;38.15;;;18.05;;
74269;SDS011;62754;48.252;11.654;2022-12-16T12:19:20;33.50;;;16.83;;
74269;SDS011;62754;48.252;11.654;2022-12-16T12:22:17;34.17;;;17.17;;
74269;SDS011;62754;48.252;11.654;2022-12-16T12:24:52;37.22;;;17.42;;
74269;SDS011;62754;48.252;11.654;2022-12-16T12:30:15;37.50;;;17.77;;
74269;SDS011;62754;48.252;11.654;2022-12-16T12:32:47;34.70;;;18.17;;
74269;SDS011;62754;48.252;11.654;2022-12-16T12:38:11;37.20;;;17.30;;
74269;SDS011;62754;48.252;11.654;2022-12-16T12:46:46;36.00;;;17.00;;
74269;SDS011;62754;48.252;11.654;2022-12-16T12:55:40;34.35;;;16.83;;
74269;SDS011;62754;48.252;11.654;2022-12-16T12:58:12;33.17;;;16.92;;
74269;SDS011;62754;48.252;11.654;2022-12-16T13:00:44;38.03;;;17.15;;
74269;SDS011;62754;48.252;11.654;2022-12-16T13:05:52;31.38;;;16.35;;
74269;SDS011;62754;48.252;11.654;2022-12-16T13:11:10;33.42;;;15.63;;
74269;SDS011;62754;48.252;11.654;2022-12-16T13:16:05;33.00;;;16.17;;
74269;SDS011;62754;48.252;11.654;2022-12-16T13:18:35;26.92;;;15.00;;
74269;SDS011;62754;48.252;11.654;2022-12-16T13:21:01;30.02;;;14.43;;
74269;SDS011;62754;48.252;11.654;2022-12-16T13:25:56;30.73;;;15.98;;
74269;SDS011;62754;48.252;11.654;2022-12-16T13:28:39;32.38;;;15.55;;
74269;SDS011;62754;48.252;11.654;2022-12-16T13:31:07;34.85;;;16.65;;
74269;SDS011;62754;48.252;11.654;2022-12-16T13:33:33;30.67;;;16.05;;
74269;SDS011;62754;48.252;11.654;2022-12-16T13:35:59;37.08;;;16.27;;
74269;SDS011;62754;48.252;11.654;2022-12-16T13:38:25;28.08;;;15.50;;
74269;SDS011;62754;48.252;11.654;2022-12-16T13:43:53;34.55;;;16.25;;
74269;SDS011;62754;48.252;11.654;2022-12-16T13:46:17;31.15;;;16.60;;
74269;SDS011;62754;48.252;11.654;2022-12-16T13:48:43;36.42;;;15.70;;
74269;SDS011;62754;48.252;11.654;2022-12-16T13:51:10;31.50;;;16.63;;
74269;SDS011;62754;48.252;11.654;2022-12-16T13:54:00;35.03;;;17.20;;
74269;SDS011;62754;48.252;11.654;2022-12-16T13:56:37;30.80;;;16.40;;
74269;SDS011;62754;48.252;11.654;2022-12-16T13:59:16;31.48;;;15.35;;
74269;SDS011;62754;48.252;11.654;2022-12-16T14:04:11;34.25;;;16.63;;
74269;SDS011;62754;48.252;11.654;2022-12-16T14:06:45;33.38;;;16.73;;
74269;SDS011;62754;48.252;11.654;2022-12-16T14:12:04;30.90;;;15.95;;
74269;SDS011;62754;48.252;11.654;2022-12-16T14:14:46;35.38;;;15.77;;
74269;SDS011;62754;48.252;11.654;2022-12-16T14:17:18;38.80;;;17.85;;
74269;SDS011;62754;48.252;11.654;2022-12-16T14:22:35;33.42;;;17.55;;
74269;SDS011;62754;48.252;11.654;2022-12-16T14:25:13;33.15;;;16.70;;
74269;SDS011;62754;48.252;11.654;2022-12-16T14:27:41;31.42;;;16.00;;
74269;SDS011;62754;48.252;11.654;2022-12-16T14:30:18;34.10;;;16.42;;
74269;SDS011;62754;48.252;11.654;2022-12-16T14:32:46;34.58;;;15.63;;
74269;SDS011;62754;48.252;11.654;2022-12-16T14:35:13;35.95;;;18.08;;
74269;SDS011;62754;48.252;11.654;2022-12-16T14:37:41;33.63;;;16.42;;
74269;SDS011;62754;48.252;11.654;2022-12-16T14:40:26;32.28;;;15.23;;
74269;SDS011;62754;48.252;11.654;2022-12-16T14:42:54;30.73;;;14.35;;
74269;SDS011;62754;48.252;11.654;2022-12-16T14:45:30;29.42;;;14.30;;
74269;SDS011;62754;48.252;11.654;2022-12-16T14:47:58;31.13;;;15.27;;
74269;SDS011;62754;48.252;11.654;2022-12-16T14:50:25;27.52;;;13.30;;
74269;SDS011;62754;48.252;11.654;2022-12-16T14:53:04;29.73;;;15.20;;
74269;SDS011;62754;48.252;11.654;2022-12-16T14:55:44;27.15;;;14.50;;
74269;SDS011;62754;48.252;11.654;2022-12-16T14:58:11;29.25;;;15.15;;
74269;SDS011;62754;48.252;11.654;2022-12-16T15:00:39;29.83;;;15.90;;
74269;SDS011;62754;48.252;11.654;2022-12-16T15:03:30;32.03;;;16.42;;
74269;SDS011;62754;48.252;11.654;2022-12-16T15:06:01;29.88;;;15.02;;
74269;SDS011;62754;48.252;11.654;2022-12-16T15:08:29;31.98;;;15.48;;
74269;SDS011;62754;48.252;11.654;2022-12-16T15:10:59;27.10;;;14.07;;
74269;SDS011;62754;48.252;11.654;2022-12-16T15:13:26;29.42;;;14.95;;
74269;SDS011;62754;48.252;11.654;2022-12-16T15:15:52;34.10;;;15.43;;
74269;SDS011;62754;48.252;11.654;2022-12-16T15:18:20;30.38;;;15.50;;
74269;SDS011;62754;48.252;11.654;2022-12-16T15:20:52;33.47;;;15.27;;
74269;SDS011;62754;48.252;11.654;2022-12-16T15:25:47;30.17;;;13.77;;
74269;SDS011;62754;48.252;11.654;2022-12-16T15:28:22;30.67;;;15.13;;
74269;SDS011;62754;48.252;11.654;2022-12-16T15:31:05;27.60;;;14.52;;
74269;SDS011;62754;48.252;11.654;2022-12-16T15:33:38;29.60;;;14.57;;
74269;SDS011;62754;48.252;11.654;2022-12-16T15:36:04;32.35;;;14.80;;
74269;SDS011;62754;48.252;11.654;2022-12-16T15:38:34;29.92;;;14.82;;
74269;SDS011;62754;48.252;11.654;2022-12-16T15:41:00;31.15;;;15.23;;
74269;SDS011;62754;48.252;11.654;2022-12-16T15:45:54;30.25;;;15.15;;
74269;SDS011;62754;48.252;11.654;2022-12-16T15:48:25;24.77;;;13.20;;
74269;SDS011;62754;48.252;11.654;2022-12-16T15:50:53;25.52;;;13.57;;
74269;SDS011;62754;48.252;11.654;2022-12-16T15:53:27;30.30;;;15.25;;
74269;SDS011;62754;48.252;11.654;2022-12-16T15:55:55;28.75;;;14.00;;
74269;SDS011;62754;48.252;11.654;2022-12-16T15:58:31;30.00;;;14.80;;
74269;SDS011;62754;48.252;11.654;2022-12-16T16:00:59;26.45;;;14.48;;
74269;SDS011;62754;48.252;11.654;2022-12-16T16:03:26;29.48;;;14.52;;
74269;SDS011;62754;48.252;11.654;2022-12-16T16:05:54;30.48;;;15.35;;
74269;SDS011;62754;48.252;11.654;2022-12-16T16:08:20;31.38;;;14.93;;
74269;SDS011;62754;48.252;11.654;2022-12-16T16:10:46;30.88;;;15.07;;